Terminal Aerodrome Forecast
Issued by NWS

Home | Current Version | Previous Version | Text Only | Print | Product List | Glossary On
Versions: 1 2 3 4 5 6 7 8 9 10 11 12 13 14 15 16
841
FTUS43 KLSX 212051 AAB
TAFCPS
TAF AMD
KCPS 212051Z 2121/2218 14012KT P6SM VCTS SCT030 BKN050CB
     FM220000 18008KT P6SM SCT060
     FM220800 20009KT P6SM VCTS BKN060CB
      TEMPO 2208/2212 4SM -TSRA OVC030CB
     FM221200 26005KT 6SM -SHRA VCTS OVC030CB
     FM221700 27006KT P6SM OVC040=

USA.gov is the U.S. government's official web portal to all federal, state and local government web resources and services.